sensor_id;sensor_type;location;lat;lon;timestamp;pressure;altitude;pressure_sealevel;temperature;humidity
21545;BME280;10933;50.754;11.508;2023-04-12T00:02:02;99182.63;;;-0.16;100.00
21545;BME280;10933;50.754;11.508;2023-04-12T00:04:29;99180.78;;;-0.22;100.00
21545;BME280;10933;50.754;11.508;2023-04-12T00:06:59;99181.38;;;-0.41;100.00
21545;BME280;10933;50.754;11.508;2023-04-12T00:09:26;99190.09;;;-0.47;100.00
21545;BME280;10933;50.754;11.508;2023-04-12T00:11:56;99191.75;;;-0.46;100.00
21545;BME280;10933;50.754;11.508;2023-04-12T00:14:28;99186.84;;;-0.49;100.00
21545;BME280;10933;50.754;11.508;2023-04-12T00:16:54;99181.97;;;-0.46;100.00
21545;BME280;10933;50.754;11.508;2023-04-12T00:19:21;99170.06;;;-0.35;100.00
21545;BME280;10933;50.754;11.508;2023-04-12T00:21:47;99161.91;;;-0.34;100.00
21545;BME280;10933;50.754;11.508;2023-04-12T00:24:13;99168.53;;;-0.44;100.00
21545;BME280;10933;50.754;11.508;2023-04-12T00:26:39;99160.97;;;-0.47;100.00
21545;BME280;10933;50.754;11.508;2023-04-12T00:29:05;99155.91;;;-0.42;100.00
21545;BME280;10933;50.754;11.508;2023-04-12T00:31:32;99147.53;;;-0.46;100.00
21545;BME280;10933;50.754;11.508;2023-04-12T00:33:58;99153.75;;;-0.53;100.00
21545;BME280;10933;50.754;11.508;2023-04-12T00:36:24;99148.22;;;-0.58;100.00
21545;BME280;10933;50.754;11.508;2023-04-12T00:38:51;99143.53;;;-0.56;100.00
21545;BME280;10933;50.754;11.508;2023-04-12T00:41:17;99140.16;;;-0.50;100.00
21545;BME280;10933;50.754;11.508;2023-04-12T00:43:43;99135.91;;;-0.45;100.00
21545;BME280;10933;50.754;11.508;2023-04-12T00:46:10;99137.47;;;-0.29;100.00
21545;BME280;10933;50.754;11.508;2023-04-12T00:48:37;99134.59;;;-0.34;100.00
21545;BME280;10933;50.754;11.508;2023-04-12T00:51:04;99126.63;;;-0.34;100.00
21545;BME280;10933;50.754;11.508;2023-04-12T00:53:31;99131.94;;;-0.34;100.00
21545;BME280;10933;50.754;11.508;2023-04-12T00:55:58;99130.28;;;-0.35;100.00
21545;BME280;10933;50.754;11.508;2023-04-12T00:58:24;99119.44;;;-0.40;100.00
21545;BME280;10933;50.754;11.508;2023-04-12T01:00:50;99114.72;;;-0.45;100.00
21545;BME280;10933;50.754;11.508;2023-04-12T01:03:19;99112.00;;;-0.51;100.00
21545;BME280;10933;50.754;11.508;2023-04-12T01:06:10;99114.84;;;-0.53;100.00
21545;BME280;10933;50.754;11.508;2023-04-12T01:12:01;99113.50;;;-0.42;100.00
21545;BME280;10933;50.754;11.508;2023-04-12T01:17:21;99114.41;;;-0.35;100.00
21545;BME280;10933;50.754;11.508;2023-04-12T01:19:59;99107.06;;;-0.33;100.00
21545;BME280;10933;50.754;11.508;2023-04-12T01:22:37;99113.00;;;-0.31;100.00
21545;BME280;10933;50.754;11.508;2023-04-12T01:28:11;99098.09;;;-0.32;100.00
21545;BME280;10933;50.754;11.508;2023-04-12T01:30:41;99088.31;;;-0.32;100.00
21545;BME280;10933;50.754;11.508;2023-04-12T01:33:10;99073.25;;;-0.31;100.00
21545;BME280;10933;50.754;11.508;2023-04-12T01:35:37;99075.13;;;-0.25;100.00
21545;BME280;10933;50.754;11.508;2023-04-12T01:38:05;99075.94;;;-0.24;100.00
21545;BME280;10933;50.754;11.508;2023-04-12T01:40:32;99069.56;;;-0.30;100.00
21545;BME280;10933;50.754;11.508;2023-04-12T01:43:04;99072.09;;;-0.22;100.00
21545;BME280;10933;50.754;11.508;2023-04-12T01:45:31;99071.56;;;-0.11;100.00
21545;BME280;10933;50.754;11.508;2023-04-12T01:47:57;99063.59;;;-0.11;100.00
21545;BME280;10933;50.754;11.508;2023-04-12T01:56:10;99052.94;;;-0.17;100.00
21545;BME280;10933;50.754;11.508;2023-04-12T01:58:39;99052.94;;;-0.17;100.00
21545;BME280;10933;50.754;11.508;2023-04-12T02:01:07;99051.38;;;-0.12;100.00
21545;BME280;10933;50.754;11.508;2023-04-12T02:03:35;99050.19;;;-0.03;100.00
21545;BME280;10933;50.754;11.508;2023-04-12T02:06:02;99047.53;;;-0.03;100.00
21545;BME280;10933;50.754;11.508;2023-04-12T02:08:30;99047.16;;;0.01;100.00
21545;BME280;10933;50.754;11.508;2023-04-12T02:10:56;99049.00;;;0.00;100.00
21545;BME280;10933;50.754;11.508;2023-04-12T02:13:22;99033.91;;;0.01;100.00
21545;BME280;10933;50.754;11.508;2023-04-12T02:15:49;99028.59;;;0.01;100.00
21545;BME280;10933;50.754;11.508;2023-04-12T02:18:15;99033.31;;;0.12;100.00
21545;BME280;10933;50.754;11.508;2023-04-12T02:20:42;99020.94;;;0.19;100.00
21545;BME280;10933;50.754;11.508;2023-04-12T02:23:08;99023.78;;;0.17;100.00
21545;BME280;10933;50.754;11.508;2023-04-12T02:25:34;99016.41;;;0.13;100.00
21545;BME280;10933;50.754;11.508;2023-04-12T02:28:01;99005.41;;;0.16;100.00
21545;BME280;10933;50.754;11.508;2023-04-12T02:30:27;99000.94;;;0.16;100.00
21545;BME280;10933;50.754;11.508;2023-04-12T02:32:53;98999.09;;;0.17;100.00
21545;BME280;10933;50.754;11.508;2023-04-12T02:35:21;98999.66;;;0.12;100.00
21545;BME280;10933;50.754;11.508;2023-04-12T02:37:47;98994.34;;;0.06;100.00
21545;BME280;10933;50.754;11.508;2023-04-12T02:40:14;98989.44;;;0.03;100.00
21545;BME280;10933;50.754;11.508;2023-04-12T02:42:41;98990.81;;;-0.02;100.00
21545;BME280;10933;50.754;11.508;2023-04-12T02:45:08;98972.25;;;-0.08;100.00
21545;BME280;10933;50.754;11.508;2023-04-12T02:47:35;98977.13;;;-0.12;100.00
21545;BME280;10933;50.754;11.508;2023-04-12T02:50:01;98961.41;;;-0.13;100.00
21545;BME280;10933;50.754;11.508;2023-04-12T02:52:27;98964.06;;;-0.13;100.00
21545;BME280;10933;50.754;11.508;2023-04-12T02:54:58;98959.16;;;-0.16;100.00
21545;BME280;10933;50.754;11.508;2023-04-12T02:57:24;98953.22;;;-0.18;100.00
21545;BME280;10933;50.754;11.508;2023-04-12T02:59:51;98942.00;;;-0.20;100.00
21545;BME280;10933;50.754;11.508;2023-04-12T03:02:21;98939.75;;;-0.23;100.00
21545;BME280;10933;50.754;11.508;2023-04-12T03:04:47;98945.28;;;-0.18;100.00
21545;BME280;10933;50.754;11.508;2023-04-12T03:07:19;98947.31;;;-0.20;100.00
21545;BME280;10933;50.754;11.508;2023-04-12T03:09:46;98939.56;;;-0.15;100.00
21545;BME280;10933;50.754;11.508;2023-04-12T03:12:13;98940.25;;;-0.07;100.00
21545;BME280;10933;50.754;11.508;2023-04-12T03:14:39;98946.63;;;0.06;100.00
21545;BME280;10933;50.754;11.508;2023-04-12T03:17:05;98938.44;;;0.01;100.00
21545;BME280;10933;50.754;11.508;2023-04-12T03:19:32;98938.03;;;0.04;100.00
21545;BME280;10933;50.754;11.508;2023-04-12T03:22:00;98934.56;;;0.03;100.00
21545;BME280;10933;50.754;11.508;2023-04-12T03:24:27;98932.34;;;0.07;100.00
21545;BME280;10933;50.754;11.508;2023-04-12T03:26:53;98931.94;;;0.10;100.00
21545;BME280;10933;50.754;11.508;2023-04-12T03:29:20;98935.19;;;0.12;100.00
21545;BME280;10933;50.754;11.508;2023-04-12T03:31:47;98932.38;;;0.20;100.00
21545;BME280;10933;50.754;11.508;2023-04-12T03:34:13;98929.88;;;0.12;100.00
21545;BME280;10933;50.754;11.508;2023-04-12T03:36:39;98923.34;;;0.01;100.00
21545;BME280;10933;50.754;11.508;2023-04-12T03:39:06;98922.97;;;0.11;100.00
21545;BME280;10933;50.754;11.508;2023-04-12T03:41:33;98913.81;;;0.13;100.00
21545;BME280;10933;50.754;11.508;2023-04-12T03:43:59;98905.66;;;0.15;100.00
21545;BME280;10933;50.754;11.508;2023-04-12T03:46:25;98900.97;;;0.23;100.00
21545;BME280;10933;50.754;11.508;2023-04-12T03:48:51;98898.94;;;0.32;100.00
21545;BME280;10933;50.754;11.508;2023-04-12T03:51:18;98898.34;;;0.30;100.00
21545;BME280;10933;50.754;11.508;2023-04-12T03:53:47;98893.25;;;0.28;100.00
21545;BME280;10933;50.754;11.508;2023-04-12T03:56:13;98887.53;;;0.32;100.00
21545;BME280;10933;50.754;11.508;2023-04-12T03:58:39;98875.47;;;0.29;100.00
21545;BME280;10933;50.754;11.508;2023-04-12T04:01:06;98864.47;;;0.25;100.00
21545;BME280;10933;50.754;11.508;2023-04-12T04:03:32;98861.38;;;0.15;100.00
21545;BME280;10933;50.754;11.508;2023-04-12T04:06:00;98862.59;;;0.19;100.00
21545;BME280;10933;50.754;11.508;2023-04-12T04:08:27;98860.56;;;0.21;100.00
21545;BME280;10933;50.754;11.508;2023-04-12T04:10:55;98857.50;;;0.18;100.00
21545;BME280;10933;50.754;11.508;2023-04-12T04:13:21;98853.22;;;0.17;100.00
21545;BME280;10933;50.754;11.508;2023-04-12T04:16:11;98855.66;;;0.18;100.00
21545;BME280;10933;50.754;11.508;2023-04-12T04:18:37;98851.41;;;0.44;100.00
21545;BME280;10933;50.754;11.508;2023-04-12T04:21:03;98854.09;;;0.64;100.00
21545;BME280;10933;50.754;11.508;2023-04-12T04:23:31;98848.34;;;0.60;100.00
21545;BME280;10933;50.754;11.508;2023-04-12T04:26:06;98852.88;;;0.66;100.00
21545;BME280;10933;50.754;11.508;2023-04-12T04:28:41;98861.66;;;0.67;100.00
21545;BME280;10933;50.754;11.508;2023-04-12T04:31:11;98855.31;;;0.68;100.00
21545;BME280;10933;50.754;11.508;2023-04-12T04:33:37;98854.09;;;0.77;100.00
21545;BME280;10933;50.754;11.508;2023-04-12T04:36:05;98846.75;;;0.66;100.00
21545;BME280;10933;50.754;11.508;2023-04-12T04:38:35;98842.25;;;0.66;100.00
21545;BME280;10933;50.754;11.508;2023-04-12T04:41:01;98843.47;;;0.70;100.00
21545;BME280;10933;50.754;11.508;2023-04-12T04:43:29;98840.59;;;0.72;100.00
21545;BME280;10933;50.754;11.508;2023-04-12T04:45:56;98838.16;;;0.70;100.00
21545;BME280;10933;50.754;11.508;2023-04-12T04:48:23;98833.47;;;0.66;100.00
21545;BME280;10933;50.754;11.508;2023-04-12T04:50:49;98826.91;;;0.62;100.00
21545;BME280;10933;50.754;11.508;2023-04-12T04:53:18;98830.22;;;0.64;100.00
21545;BME280;10933;50.754;11.508;2023-04-12T04:55:46;98824.69;;;0.72;100.00
21545;BME280;10933;50.754;11.508;2023-04-12T04:58:13;98823.84;;;0.71;100.00
21545;BME280;10933;50.754;11.508;2023-04-12T05:00:39;98820.19;;;0.79;100.00
21545;BME280;10933;50.754;11.508;2023-04-12T05:03:05;98823.03;;;0.84;100.00
21545;BME280;10933;50.754;11.508;2023-04-12T05:05:32;98820.16;;;0.99;100.00
21545;BME280;10933;50.754;11.508;2023-04-12T05:07:58;98809.91;;;1.09;100.00
21545;BME280;10933;50.754;11.508;2023-04-12T05:10:24;98825.22;;;1.13;100.00
21545;BME280;10933;50.754;11.508;2023-04-12T05:12:50;98816.00;;;1.23;100.00
21545;BME280;10933;50.754;11.508;2023-04-12T05:15:17;98811.50;;;1.30;100.00
21545;BME280;10933;50.754;11.508;2023-04-12T05:17:43;98806.19;;;1.30;100.00
21545;BME280;10933;50.754;11.508;2023-04-12T05:20:09;98805.34;;;1.36;100.00
21545;BME280;10933;50.754;11.508;2023-04-12T05:22:35;98810.22;;;1.45;100.00
21545;BME280;10933;50.754;11.508;2023-04-12T05:25:02;98807.34;;;1.47;100.00
21545;BME280;10933;50.754;11.508;2023-04-12T05:27:29;98802.47;;;1.44;100.00
21545;BME280;10933;50.754;11.508;2023-04-12T05:29:58;98797.56;;;1.41;100.00
21545;BME280;10933;50.754;11.508;2023-04-12T05:32:25;98791.41;;;1.47;100.00
21545;BME280;10933;50.754;11.508;2023-04-12T05:34:51;98765.63;;;1.54;100.00
21545;BME280;10933;50.754;11.508;2023-04-12T05:37:18;98768.88;;;1.56;100.00
21545;BME280;10933;50.754;11.508;2023-04-12T05:39:44;98759.44;;;1.67;100.00
21545;BME280;10933;50.754;11.508;2023-04-12T05:42:10;98765.06;;;1.84;100.00
21545;BME280;10933;50.754;11.508;2023-04-12T05:44:39;98765.78;;;1.97;100.00
21545;BME280;10933;50.754;11.508;2023-04-12T05:47:06;98767.09;;;2.13;100.00
21545;BME280;10933;50.754;11.508;2023-04-12T05:49:32;98759.13;;;2.13;100.00
21545;BME280;10933;50.754;11.508;2023-04-12T05:51:58;98760.16;;;2.37;100.00
21545;BME280;10933;50.754;11.508;2023-04-12T05:54:24;98752.28;;;2.49;100.00
21545;BME280;10933;50.754;11.508;2023-04-12T05:56:51;98747.63;;;2.87;100.00
21545;BME280;10933;50.754;11.508;2023-04-12T05:59:20;98735.19;;;2.81;100.00
21545;BME280;10933;50.754;11.508;2023-04-12T06:01:53;98734.81;;;2.78;100.00
21545;BME280;10933;50.754;11.508;2023-04-12T06:04:20;98733.13;;;3.02;100.00
21545;BME280;10933;50.754;11.508;2023-04-12T06:06:46;98726.09;;;3.55;100.00
21545;BME280;10933;50.754;11.508;2023-04-12T06:09:12;98710.59;;;4.06;100.00
21545;BME280;10933;50.754;11.508;2023-04-12T06:11:39;98707.97;;;4.88;100.00
21545;BME280;10933;50.754;11.508;2023-04-12T06:14:06;98718.66;;;5.68;100.00
21545;BME280;10933;50.754;11.508;2023-04-12T06:16:32;98700.19;;;6.12;100.00
21545;BME280;10933;50.754;11.508;2023-04-12T06:19:01;98688.91;;;6.82;100.00
21545;BME280;10933;50.754;11.508;2023-04-12T06:21:27;98685.13;;;7.22;100.00
21545;BME280;10933;50.754;11.508;2023-04-12T06:23:56;98673.66;;;7.75;100.00
21545;BME280;10933;50.754;11.508;2023-04-12T06:26:22;98666.22;;;7.33;100.00
21545;BME280;10933;50.754;11.508;2023-04-12T06:28:48;98666.22;;;8.14;100.00
21545;BME280;10933;50.754;11.508;2023-04-12T06:31:15;98660.75;;;8.04;100.00
21545;BME280;10933;50.754;11.508;2023-04-12T06:33:42;98653.94;;;7.91;100.00
21545;BME280;10933;50.754;11.508;2023-04-12T06:36:08;98650.94;;;7.34;100.00
21545;BME280;10933;50.754;11.508;2023-04-12T06:38:36;98653.22;;;7.74;100.00
21545;BME280;10933;50.754;11.508;2023-04-12T06:41:02;98645.22;;;8.11;100.00
21545;BME280;10933;50.754;11.508;2023-04-12T06:43:28;98646.19;;;8.00;100.00
21545;BME280;10933;50.754;11.508;2023-04-12T06:45:54;98632.75;;;8.00;100.00
21545;BME280;10933;50.754;11.508;2023-04-12T06:48:21;98629.19;;;9.26;100.00
21545;BME280;10933;50.754;11.508;2023-04-12T06:50:47;98620.63;;;9.39;100.00
21545;BME280;10933;50.754;11.508;2023-04-12T06:53:13;98621.19;;;10.53;100.00
21545;BME280;10933;50.754;11.508;2023-04-12T06:55:40;98619.59;;;10.52;100.00
21545;BME280;10933;50.754;11.508;2023-04-12T06:58:06;98604.75;;;11.25;100.00
21545;BME280;10933;50.754;11.508;2023-04-12T07:00:32;98606.72;;;11.58;100.00
21545;BME280;10933;50.754;11.508;2023-04-12T07:02:59;98596.31;;;12.15;100.00
21545;BME280;10933;50.754;11.508;2023-04-12T07:05:25;98597.13;;;11.37;100.00
21545;BME280;10933;50.754;11.508;2023-04-12T07:07:51;98583.34;;;11.83;100.00
21545;BME280;10933;50.754;11.508;2023-04-12T07:10:17;98581.97;;;12.14;100.00
21545;BME280;10933;50.754;11.508;2023-04-12T07:12:44;98575.47;;;11.47;100.00
21545;BME280;10933;50.754;11.508;2023-04-12T07:15:10;98559.13;;;11.23;100.00
21545;BME280;10933;50.754;11.508;2023-04-12T07:17:36;98543.75;;;11.24;100.00
21545;BME280;10933;50.754;11.508;2023-04-12T07:20:02;98545.75;;;12.15;100.00
21545;BME280;10933;50.754;11.508;2023-04-12T07:22:28;98537.44;;;11.38;100.00
21545;BME280;10933;50.754;11.508;2023-04-12T07:24:55;98545.41;;;11.93;100.00
21545;BME280;10933;50.754;11.508;2023-04-12T07:27:21;98544.78;;;11.28;100.00
21545;BME280;10933;50.754;11.508;2023-04-12T07:29:47;98533.22;;;11.61;100.00
21545;BME280;10933;50.754;11.508;2023-04-12T07:32:15;98531.56;;;11.65;100.00
21545;BME280;10933;50.754;11.508;2023-04-12T07:34:41;98530.03;;;11.54;100.00
21545;BME280;10933;50.754;11.508;2023-04-12T07:37:08;98518.88;;;12.00;100.00
21545;BME280;10933;50.754;11.508;2023-04-12T07:39:34;98509.00;;;12.62;100.00
21545;BME280;10933;50.754;11.508;2023-04-12T07:42:00;98517.97;;;12.57;100.00
21545;BME280;10933;50.754;11.508;2023-04-12T07:44:27;98513.47;;;12.00;100.00
21545;BME280;10933;50.754;11.508;2023-04-12T07:46:53;98524.06;;;11.91;100.00
21545;BME280;10933;50.754;11.508;2023-04-12T07:49:19;98511.00;;;12.27;100.00
21545;BME280;10933;50.754;11.508;2023-04-12T07:51:45;98518.91;;;12.48;100.00
21545;BME280;10933;50.754;11.508;2023-04-12T07:54:11;98509.72;;;11.96;100.00
21545;BME280;10933;50.754;11.508;2023-04-12T07:56:38;98503.94;;;11.73;100.00
21545;BME280;10933;50.754;11.508;2023-04-12T07:59:04;98507.44;;;11.79;100.00
21545;BME280;10933;50.754;11.508;2023-04-12T08:01:30;98491.97;;;12.14;100.00
21545;BME280;10933;50.754;11.508;2023-04-12T08:03:57;98488.72;;;11.88;100.00
21545;BME280;10933;50.754;11.508;2023-04-12T08:06:23;98501.63;;;11.96;100.00
21545;BME280;10933;50.754;11.508;2023-04-12T08:08:49;98494.91;;;11.88;100.00
21545;BME280;10933;50.754;11.508;2023-04-12T08:11:16;98471.22;;;12.09;100.00
21545;BME280;10933;50.754;11.508;2023-04-12T08:13:42;98475.84;;;12.03;100.00
21545;BME280;10933;50.754;11.508;2023-04-12T08:16:08;98471.50;;;12.07;100.00
21545;BME280;10933;50.754;11.508;2023-04-12T08:18:34;98475.09;;;11.69;100.00
21545;BME280;10933;50.754;11.508;2023-04-12T08:21:01;98475.00;;;11.79;100.00
21545;BME280;10933;50.754;11.508;2023-04-12T08:23:27;98472.13;;;11.65;100.00
21545;BME280;10933;50.754;11.508;2023-04-12T08:25:53;98471.22;;;11.12;100.00
21545;BME280;10933;50.754;11.508;2023-04-12T08:28:27;98476.91;;;11.10;100.00
21545;BME280;10933;50.754;11.508;2023-04-12T08:30:57;98455.75;;;11.23;100.00
21545;BME280;10933;50.754;11.508;2023-04-12T08:33:24;98468.44;;;10.78;100.00
21545;BME280;10933;50.754;11.508;2023-04-12T08:35:58;98472.81;;;11.13;100.00
21545;BME280;10933;50.754;11.508;2023-04-12T08:38:24;98468.38;;;10.93;100.00
21545;BME280;10933;50.754;11.508;2023-04-12T08:40:51;98460.66;;;11.15;100.00
21545;BME280;10933;50.754;11.508;2023-04-12T08:43:17;98457.22;;;11.44;100.00
21545;BME280;10933;50.754;11.508;2023-04-12T08:45:44;98476.84;;;11.15;100.00
21545;BME280;10933;50.754;11.508;2023-04-12T08:48:11;98457.22;;;11.44;100.00
21545;BME280;10933;50.754;11.508;2023-04-12T08:50:37;98470.19;;;11.08;100.00
21545;BME280;10933;50.754;11.508;2023-04-12T08:53:04;98446.13;;;11.74;100.00
21545;BME280;10933;50.754;11.508;2023-04-12T08:55:30;98445.59;;;12.49;100.00
21545;BME280;10933;50.754;11.508;2023-04-12T08:57:56;98446.50;;;12.40;100.00
21545;BME280;10933;50.754;11.508;2023-04-12T09:00:23;98455.44;;;12.16;100.00
21545;BME280;10933;50.754;11.508;2023-04-12T09:02:50;98459.91;;;11.73;100.00
21545;BME280;10933;50.754;11.508;2023-04-12T09:05:17;98456.31;;;11.54;100.00
21545;BME280;10933;50.754;11.508;2023-04-12T09:07:43;98447.22;;;11.73;100.00
21545;BME280;10933;50.754;11.508;2023-04-12T09:10:16;98435.31;;;11.74;100.00
21545;BME280;10933;50.754;11.508;2023-04-12T09:12:54;98442.66;;;11.40;100.00
21545;BME280;10933;50.754;11.508;2023-04-12T09:15:23;98416.06;;;11.52;100.00
21545;BME280;10933;50.754;11.508;2023-04-12T09:17:49;98413.47;;;11.71;100.00
21545;BME280;10933;50.754;11.508;2023-04-12T09:20:27;98411.91;;;11.65;100.00
21545;BME280;10933;50.754;11.508;2023-04-12T09:22:53;98398.91;;;11.09;100.00
21545;BME280;10933;50.754;11.508;2023-04-12T09:25:36;98388.09;;;10.75;100.00
21545;BME280;10933;50.754;11.508;2023-04-12T09:28:04;98390.94;;;10.94;100.00
21545;BME280;10933;50.754;11.508;2023-04-12T09:30:41;98391.34;;;11.40;100.00
21545;BME280;10933;50.754;11.508;2023-04-12T09:33:11;98376.88;;;11.31;100.00
21545;BME280;10933;50.754;11.508;2023-04-12T09:35:38;98377.16;;;11.58;100.00
21545;BME280;10933;50.754;11.508;2023-04-12T09:38:08;98359.78;;;11.64;100.00
21545;BME280;10933;50.754;11.508;2023-04-12T09:40:35;98350.47;;;12.23;100.00
21545;BME280;10933;50.754;11.508;2023-04-12T09:43:02;98357.34;;;12.72;100.00
21545;BME280;10933;50.754;11.508;2023-04-12T09:45:33;98358.34;;;13.28;100.00
21545;BME280;10933;50.754;11.508;2023-04-12T09:47:59;98352.13;;;13.27;100.00
21545;BME280;10933;50.754;11.508;2023-04-12T09:50:27;98333.34;;;12.09;100.00
21545;BME280;10933;50.754;11.508;2023-04-12T09:52:55;98339.91;;;12.03;100.00
21545;BME280;10933;50.754;11.508;2023-04-12T09:55:24;98321.84;;;11.98;100.00
21545;BME280;10933;50.754;11.508;2023-04-12T09:57:52;98319.50;;;11.44;100.00
21545;BME280;10933;50.754;11.508;2023-04-12T10:00:20;98316.31;;;11.37;100.00
21545;BME280;10933;50.754;11.508;2023-04-12T10:02:48;98307.13;;;10.46;100.00
21545;BME280;10933;50.754;11.508;2023-04-12T10:05:17;98296.81;;;10.09;100.00
21545;BME280;10933;50.754;11.508;2023-04-12T10:07:44;98321.28;;;9.58;100.00
21545;BME280;10933;50.754;11.508;2023-04-12T10:10:12;98292.31;;;9.29;100.00
21545;BME280;10933;50.754;11.508;2023-04-12T10:12:42;98297.19;;;8.97;100.00
21545;BME280;10933;50.754;11.508;2023-04-12T10:15:11;98287.00;;;8.73;100.00
21545;BME280;10933;50.754;11.508;2023-04-12T10:17:44;98277.59;;;8.61;100.00
21545;BME280;10933;50.754;11.508;2023-04-12T10:20:11;98294.75;;;8.34;100.00
21545;BME280;10933;50.754;11.508;2023-04-12T10:22:42;98285.34;;;8.32;100.00
21545;BME280;10933;50.754;11.508;2023-04-12T10:25:12;98286.38;;;8.15;100.00
21545;BME280;10933;50.754;11.508;2023-04-12T10:27:42;98276.44;;;8.01;100.00
21545;BME280;10933;50.754;11.508;2023-04-12T10:30:34;98286.84;;;7.87;100.00
21545;BME280;10933;50.754;11.508;2023-04-12T10:35:49;98270.72;;;7.77;100.00
21545;BME280;10933;50.754;11.508;2023-04-12T10:38:16;98271.56;;;7.92;100.00
21545;BME280;10933;50.754;11.508;2023-04-12T10:41:16;98274.25;;;7.97;100.00
21545;BME280;10933;50.754;11.508;2023-04-12T10:43:47;98267.31;;;8.17;100.00
21545;BME280;10933;50.754;11.508;2023-04-12T10:49:11;98267.91;;;8.44;100.00
21545;BME280;10933;50.754;11.508;2023-04-12T10:51:39;98258.50;;;8.42;100.00
21545;BME280;10933;50.754;11.508;2023-04-12T10:56:50;98254.72;;;8.48;100.00
21545;BME280;10933;50.754;11.508;2023-04-12T10:59:17;98258.22;;;8.48;100.00
21545;BME280;10933;50.754;11.508;2023-04-12T11:02:11;98231.63;;;8.57;100.00
21545;BME280;10933;50.754;11.508;2023-04-12T11:05:01;98256.38;;;8.64;100.00
21545;BME280;10933;50.754;11.508;2023-04-12T11:07:38;98244.50;;;8.80;100.00
21545;BME280;10933;50.754;11.508;2023-04-12T11:10:15;98239.13;;;8.91;100.00
21545;BME280;10933;50.754;11.508;2023-04-12T11:12:53;98243.38;;;9.02;100.00
21545;BME280;10933;50.754;11.508;2023-04-12T11:15:25;98238.56;;;9.04;100.00
21545;BME280;10933;50.754;11.508;2023-04-12T11:17:56;98243.09;;;9.13;100.00
21545;BME280;10933;50.754;11.508;2023-04-12T11:20:23;98233.03;;;9.44;100.00
21545;BME280;10933;50.754;11.508;2023-04-12T11:22:52;98209.34;;;9.47;100.00
21545;BME280;10933;50.754;11.508;2023-04-12T11:25:19;98213.84;;;9.66;100.00
21545;BME280;10933;50.754;11.508;2023-04-12T11:27:49;98215.25;;;9.54;100.00
21545;BME280;10933;50.754;11.508;2023-04-12T11:30:19;98205.53;;;9.58;100.00
21545;BME280;10933;50.754;11.508;2023-04-12T11:32:46;98202.38;;;9.90;100.00
21545;BME280;10933;50.754;11.508;2023-04-12T11:35:14;98189.88;;;10.43;100.00
21545;BME280;10933;50.754;11.508;2023-04-12T11:37:42;98183.78;;;10.61;100.00
21545;BME280;10933;50.754;11.508;2023-04-12T11:40:09;98180.91;;;11.06;100.00
21545;BME280;10933;50.754;11.508;2023-04-12T11:42:35;98188.34;;;10.90;100.00
21545;BME280;10933;50.754;11.508;2023-04-12T11:45:04;98182.84;;;11.00;100.00
21545;BME280;10933;50.754;11.508;2023-04-12T11:47:32;98187.91;;;11.31;100.00
21545;BME280;10933;50.754;11.508;2023-04-12T11:49:59;98189.94;;;11.39;100.00
21545;BME280;10933;50.754;11.508;2023-04-12T11:52:30;98172.38;;;11.17;100.00
21545;BME280;10933;50.754;11.508;2023-04-12T11:55:00;98168.34;;;10.91;100.00
21545;BME280;10933;50.754;11.508;2023-04-12T11:57:27;98151.94;;;10.64;100.00
21545;BME280;10933;50.754;11.508;2023-04-12T11:59:56;98148.28;;;10.54;100.00
21545;BME280;10933;50.754;11.508;2023-04-12T12:02:25;98137.19;;;10.56;100.00
21545;BME280;10933;50.754;11.508;2023-04-12T12:04:51;98127.38;;;11.13;100.00
21545;BME280;10933;50.754;11.508;2023-04-12T12:07:18;98135.50;;;11.32;100.00
21545;BME280;10933;50.754;11.508;2023-04-12T12:09:45;98137.19;;;11.04;100.00
21545;BME280;10933;50.754;11.508;2023-04-12T12:12:12;98124.00;;;11.45;100.00
21545;BME280;10933;50.754;11.508;2023-04-12T12:14:39;98131.28;;;11.63;100.00
21545;BME280;10933;50.754;11.508;2023-04-12T12:17:11;98116.53;;;11.74;100.00
21545;BME280;10933;50.754;11.508;2023-04-12T12:19:39;98120.13;;;11.70;100.00
21545;BME280;10933;50.754;11.508;2023-04-12T12:22:14;98109.41;;;11.46;100.00
21545;BME280;10933;50.754;11.508;2023-04-12T12:24:56;98105.94;;;11.40;100.00
21545;BME280;10933;50.754;11.508;2023-04-12T12:27:24;98122.38;;;11.63;100.00
21545;BME280;10933;50.754;11.508;2023-04-12T12:30:00;98113.25;;;11.96;100.00
21545;BME280;10933;50.754;11.508;2023-04-12T12:32:32;98100.25;;;11.61;100.00
21545;BME280;10933;50.754;11.508;2023-04-12T12:34:59;98108.06;;;11.62;100.00
21545;BME280;10933;50.754;11.508;2023-04-12T12:37:26;98099.31;;;11.70;100.00
21545;BME280;10933;50.754;11.508;2023-04-12T12:40:10;98092.47;;;11.59;100.00
21545;BME280;10933;50.754;11.508;2023-04-12T12:42:50;98095.22;;;11.54;100.00
21545;BME280;10933;50.754;11.508;2023-04-12T12:45:18;98085.75;;;11.57;100.00
21545;BME280;10933;50.754;11.508;2023-04-12T12:50:20;98069.81;;;11.17;100.00
21545;BME280;10933;50.754;11.508;2023-04-12T12:52:47;98080.31;;;11.00;100.00
21545;BME280;10933;50.754;11.508;2023-04-12T12:55:17;98077.19;;;10.93;100.00
21545;BME280;10933;50.754;11.508;2023-04-12T12:57:45;98069.00;;;11.17;100.00
21545;BME280;10933;50.754;11.508;2023-04-12T13:00:12;98073.94;;;11.34;100.00
21545;BME280;10933;50.754;11.508;2023-04-12T13:02:40;98078.66;;;11.23;100.00
21545;BME280;10933;50.754;11.508;2023-04-12T13:05:07;98088.34;;;11.05;100.00
21545;BME280;10933;50.754;11.508;2023-04-12T13:07:33;98065.53;;;10.74;100.00
21545;BME280;10933;50.754;11.508;2023-04-12T13:10:00;98069.03;;;10.74;100.00
21545;BME280;10933;50.754;11.508;2023-04-12T13:12:26;98062.25;;;10.77;100.00
21545;BME280;10933;50.754;11.508;2023-04-12T13:14:52;98064.91;;;11.01;100.00
21545;BME280;10933;50.754;11.508;2023-04-12T13:17:18;98064.28;;;11.28;100.00